Latest Coastal Weather Observations for Cape Naturaliste

IDW60701

Issued at 12:23 pm WST Monday 23 January 2017 (issued every 10 minutes, with the page automatically refreshed every 10 minutes)

About coastal observations | Map of coastal stations | Coastal observations for WA | Marine services | Other Formats
Station Details ID: 009519 Name: CAPE NATURALISTE Lat: -33.54 Lon: 115.02 Height: 109.0 m
Data from the previous 72 hours. | See also: Recent months at Cape Naturaliste
Date/Time
WST
Temp
°C
Wind Pressure Rain since
9am
mm
Weather Cloud Vis
km
Sea
Height
m
Swell
Dir  Spd
kts
Gust
kts
hPa Trend Height
m
Period
s
Dir
23/12:00pm 21.1 SSW 17 23 1017.4 - 0.0 - - - - - - -
23/11:30am 20.8 SSW 17 25 1017.4 - 0.0 - - - - - - -
23/11:00am 20.4 SSW 17 23 1017.5 - 0.0 - - - - - - -
23/10:30am 20.3 SSW 15 20 1017.4 - 0.0 - - - - - - -
23/10:00am 19.8 SSW 17 24 1017.4 - 0.0 - - - - - - -
23/09:30am 19.8 SSW 18 24 1017.2 - 0.0 - - - - - - -
23/09:00am 19.6 SSW 15 20 1017.1 - 0.4 - - - - - - -
23/08:30am 18.6 SSW 16 22 1017.1 - 0.4 - - - - - - -
23/08:00am 18.0 SSW 12 18 1016.9 - 0.4 - - - - - - -
23/07:30am 16.9 SSW 8 10 1016.6 - 0.4 - - - - - - -
23/07:00am 15.3 S 8 10 1016.3 - 0.4 - - - - - - -
23/06:30am 14.4 SSE 6 8 1016.0 - 0.2 - - - - - - -
23/06:00am 14.7 SSW 7 9 1015.7 - 0.2 Recent precip. - - - - - -
23/05:30am 15.7 SSW 10 14 1015.2 - 0.0 - - - - - - -
23/05:00am 15.3 S 9 11 1014.8 - 0.0 - - - - - - -
23/04:30am 15.6 S 12 17 1014.3 - 0.0 - - - - - - -
23/04:00am 15.9 SSW 11 16 1014.0 - 0.0 - - - - - - -
23/03:30am 16.0 SSW 10 13 1013.9 - 0.0 - - - - - - -
23/03:00am 15.7 SW 10 12 1013.7 - 0.0 - - - - - - -
23/02:30am 16.0 SW 10 15 1013.7 - 0.0 - - - - - - -
23/02:00am 15.9 SW 11 15 1013.7 - 0.0 - - - - - - -
23/01:30am 15.9 SW 13 15 1013.7 - 0.0 - - - - - - -
23/01:00am 16.0 SW 12 17 1013.6 - 0.0 - - - - - - -
23/12:30am 16.2 SW 10 16 1013.9 - 0.0 - - - - - - -
23/12:00am 16.0 SSW 12 16 1013.9 - 0.0 - - - - - - -
 
Date/Time
WST
Temp
°C
Wind Pressure Rain since
9am
mm
Weather Cloud Vis
km
Sea
Height
m
Swell
Dir  Spd
kts
Gust
kts
hPa Trend Height
m
Period
s
Dir
22/11:30pm 15.9 SW 10 14 1013.9 - 0.0 - - - - - - -
22/11:00pm 16.3 S 7 10 1014.0 - 0.0 - - - - - - -
22/10:30pm 15.9 S 8 10 1013.9 - 0.0 - - - - - - -
22/10:00pm 16.0 S 7 9 1013.8 - 0.0 - - - - - - -
22/09:30pm 16.6 SSW 12 15 1013.6 - 0.0 - - - - - - -
22/09:00pm 16.4 SSW 12 17 1013.4 - 0.0 - - - - - - -
22/08:30pm 16.6 SSW 13 17 1013.2 - 0.0 - - - - - - -
22/08:00pm 16.7 SSW 13 17 1013.0 - 0.0 - - - - - - -
22/07:30pm 17.0 SSW 15 20 1012.8 - 0.0 - - - - - - -
22/07:00pm 17.8 SW 15 21 1012.5 - 0.0 - - - - - - -
22/06:30pm 17.8 SW 13 18 1012.2 - 0.0 - - - - - - -
22/06:00pm 19.7 SSW 15 20 1011.8 - 0.0 - - - - - - -
22/05:30pm 20.3 SW 15 19 1011.5 - 0.0 - - - - - - -
22/05:00pm 20.2 SW 16 20 1011.3 - 0.0 - - - - - - -
22/04:30pm 21.0 SW 15 19 1011.2 - 0.0 - - - - - - -
22/04:00pm 21.4 SSW 15 20 1011.2 - 0.0 - - - - - - -
22/03:30pm 21.4 SSW 16 21 1011.4 - 0.0 - - - - - - -
22/03:00pm 21.5 SW 16 21 1011.5 - 0.0 - - - - - - -
22/02:30pm 21.3 SSW 18 25 1011.4 - 0.0 - - - - - - -
22/02:00pm 22.4 SSW 16 22 1011.2 - 0.0 - - - - - - -
22/01:30pm 22.4 SSW 17 22 1011.3 - 0.0 - - - - - - -
22/01:00pm 21.9 SSW 15 22 1011.3 - 0.0 - - - - - - -
22/12:30pm 21.4 SSW 15 21 1011.3 - 0.0 - - - - - - -
22/12:00pm 21.8 SSW 15 20 1011.4 - 0.0 - - - - - - -
22/11:30am 22.4 SSW 15 22 1011.5 - 0.0 - - - - - - -
22/11:00am 21.4 SSW 15 21 1011.7 - 0.0 - - - - - - -
22/10:30am 21.3 SSW 14 20 1011.7 - 0.0 - - - - - - -
22/10:00am 20.8 SW 14 18 1011.6 - 0.0 - - - - - - -
22/09:30am 20.4 SW 16 21 1011.4 - 0.0 - - - - - - -
22/09:00am 19.3 SSW 16 21 1011.3 - 0.0 - - - - - - -
22/08:30am 19.2 SSW 17 24 1011.2 - 0.0 - - - - - - -
22/08:00am 18.6 SSW 15 20 1011.2 - 0.0 - - - - - - -
22/07:30am 17.9 SSW 14 19 1011.2 - 0.0 - - - - - - -
22/07:00am 17.6 SSW 11 14 1011.0 - 0.0 - - - - - - -
22/06:30am 17.2 S 9 11 1010.8 - 0.0 - - - - - - -
22/06:00am 15.8 S 8 11 1010.5 - 0.0 - - - - - - -
22/05:30am 16.1 S 9 11 1010.3 - 0.0 - - - - - - -
22/05:00am 16.6 S 9 12 1010.1 - 0.0 - - - - - - -
22/04:30am 16.8 S 11 15 1009.8 - 0.0 - - - - - - -
22/04:00am 16.5 S 7 9 1009.7 - 0.0 - - - - - - -
22/03:30am 16.7 S 9 11 1009.6 - 0.0 - - - - - - -
22/03:00am 16.5 S 9 12 1009.6 - 0.0 - - - - - - -
22/02:30am 16.8 S 12 17 1009.4 - 0.0 - - - - - - -
22/02:00am 17.2 S 11 14 1009.3 - 0.0 - - - - - - -
22/01:30am 16.8 S 9 11 1009.5 - 0.0 - - - - - - -
22/01:00am 17.4 S 10 13 1009.6 - 0.0 - - - - - - -
22/12:30am 17.4 S 11 16 1009.8 - 0.0 - - - - - - -
22/12:00am 17.5 S 10 15 1009.9 - 0.0 - - - - - - -
 
Date/Time
WST
Temp
°C
Wind Pressure Rain since
9am
mm
Weather Cloud Vis
km
Sea
Height
m
Swell
Dir  Spd
kts
Gust
kts
hPa Trend Height
m
Period
s
Dir
21/11:30pm 17.3 S 13 17 1009.9 - 0.0 - - - - - - -
21/11:00pm 16.7 S 12 16 1010.0 - 0.0 - - - - - - -
21/10:30pm 17.0 S 13 16 1009.8 - 0.0 - - - - - - -
21/10:00pm 17.0 SSW 15 20 1009.6 - 0.0 - - - - - - -
21/09:30pm 17.1 SSW 16 22 1009.5 - 0.0 - - - - - - -
21/09:00pm 17.3 SSW 18 26 1009.3 - 0.0 - - - - - - -
21/08:30pm 17.2 SSW 18 25 1009.3 - 0.0 - - - - - - -
21/08:00pm 17.5 SSW 20 26 1008.7 - 0.0 - - - - - - -
21/07:30pm 17.7 SSW 21 30 1008.4 - 0.0 - - - - - - -
21/07:00pm 18.2 SSW 22 29 1008.2 - 0.0 - - - - - - -
21/06:30pm 19.0 SSW 22 28 1008.2 - 0.0 - - - - - - -
21/06:00pm 19.7 SSW 21 28 1007.9 - 0.0 - - - - - - -
21/05:30pm 19.9 SSW 23 31 1007.5 - 0.0 - - - - - - -
21/05:00pm 20.5 SSW 21 32 1007.5 - 0.0 - - - - - - -
21/04:57pm 20.7 SSW 22 32 1007.6 - 0.0 - - - - - - -
21/04:30pm 20.7 SSW 23 30 1007.5 - 0.0 - - - - - - -
21/04:00pm 20.9 SSW 22 29 1007.8 - 0.0 - - - - - - -
21/03:30pm 21.9 SSW 22 30 1007.9 - 0.0 - - - - - - -
21/03:00pm 22.1 SSW 21 27 1007.9 - 0.0 - - - - - - -
21/02:30pm 22.4 SSW 20 27 1007.9 - 0.0 - - - - - - -
21/02:00pm 22.2 SW 19 28 1008.0 - 0.0 - - - - - - -
21/01:30pm 21.9 SSW 19 24 1008.3 - 0.0 - - - - - - -
21/01:00pm 22.6 SSW 18 26 1008.6 - 0.0 - - - - - - -
21/12:30pm 22.5 SSW 17 24 1008.8 - 0.0 - - - - - - -
21/12:00pm 22.5 SW 15 21 1009.2 - 0.0 - - - - - - -
21/11:30am 22.0 SSW 13 19 1009.4 - 0.0 - - - - - - -
21/11:00am 22.2 SSW 12 17 1009.5 - 0.0 - - - - - - -
21/10:30am 21.7 SSW 14 19 1009.7 - 0.0 - - - - - - -
21/10:00am 21.5 SSW 13 18 1009.8 - 0.0 - - - - - - -
21/09:30am 21.1 SSW 13 17 1010.0 - 0.0 - - - - - - -
21/09:00am 20.3 SSW 13 17 1010.0 - 0.0 - - - - - - -
21/08:30am 20.2 SSW 12 16 1010.1 - 0.0 - - - - - - -
21/08:00am 19.2 SSW 12 17 1010.3 - 0.0 - - - - - - -
21/07:30am 18.0 SSW 13 18 1010.2 - 0.0 - - - - - - -
21/07:00am 17.2 S 14 20 1010.3 - 0.0 - - - - - - -
21/06:30am 16.5 S 13 17 1010.2 - 0.0 - - - - - - -
21/06:00am 15.5 S 14 18 1010.1 - 0.0 - - - - - - -
21/05:30am 15.1 S 13 18 1009.8 - 0.0 - - - - - - -
21/05:00am 15.1 SSW 14 20 1009.5 - 0.0 - - - - - - -
21/04:30am 15.0 SSW 14 17 1009.4 - 0.0 - - - - - - -
21/04:00am 15.0 SSW 14 19 1009.3 - 0.0 - - - - - - -
21/03:30am 15.3 SSW 16 21 1009.3 - 0.0 - - - - - - -
21/03:00am 15.2 SSW 14 19 1009.3 - 0.0 - - - - - - -
21/02:30am 15.1 SSW 12 15 1009.5 - 0.0 - - - - - - -
21/02:00am 14.7 SSW 12 16 1010.0 - 0.0 - - - - - - -
21/01:30am 14.5 SW 7 9 1010.3 - 0.0 - - - - - - -
21/01:00am 14.6 SSW 7 10 1010.6 - 0.0 - - - - - - -
21/12:30am 14.4 SSE 9 11 1010.5 - 0.0 - - - - - - -
21/12:00am 14.8 SE 8 10 1011.0 - 0.0 - - - - - - -
 
Date/Time
WST
Temp
°C
Wind Pressure Rain since
9am
mm
Weather Cloud Vis
km
Sea
Height
m
Swell
Dir  Spd
kts
Gust
kts
hPa Trend Height
m
Period
s
Dir
20/11:30pm 15.3 SSE 8 11 1011.0 - 0.0 - - - - - - -
20/11:00pm 15.5 S 10 12 1010.9 - 0.0 - - - - - - -
20/10:30pm 15.6 S 9 12 1011.1 - 0.0 - - - - - - -
20/10:00pm 16.0 S 10 13 1010.8 - 0.0 - - - - - - -
20/09:30pm 16.8 SSW 12 17 1010.9 - 0.0 - - - - - - -
20/09:00pm 17.1 SSW 14 21 1010.8 - 0.0 - - - - - - -
20/08:30pm 17.3 SSW 17 23 1010.6 - 0.0 - - - - - - -
20/08:00pm 17.3 SSW 17 23 1010.5 - 0.0 - - - - - - -
20/07:30pm 17.5 SSW 19 25 1010.5 - 0.0 - - - - - - -
20/07:00pm 18.0 SSW 19 25 1010.4 - 0.0 - - - - - - -
20/06:30pm 18.9 SSW 19 26 1010.1 - 0.0 - - - - - - -
20/06:00pm 19.4 SSW 20 26 1009.8 - 0.0 - - - - - - -
20/05:30pm 19.7 SSW 21 28 1009.7 - 0.0 - - - - - - -
20/05:00pm 20.2 SSW 20 27 1009.7 - 0.0 - - - - - - -
20/04:30pm 20.1 SSW 20 27 1009.8 - 0.0 - - - - - - -
20/04:00pm 20.6 SSW 19 24 1009.9 - 0.0 - - - - - - -
20/03:30pm 21.3 SSW 20 26 1010.1 - 0.0 - - - - - - -
20/03:00pm 21.3 SW 19 27 1010.3 - 0.0 - - - - - - -
20/02:45pm 21.8 SSW 19 29 1010.4 - 0.0 - - - - - - -
20/02:30pm 22.2 SSW 19 25 1010.5 - 0.0 - - - - - - -
20/02:00pm 21.7 SW 17 23 1010.9 - 0.0 - - - - - - -
20/01:30pm 21.0 SW 18 22 1011.3 - 0.0 - - - - - - -
20/01:00pm 21.9 SW 16 23 1011.7 - 0.0 - - - - - - -
20/12:30pm 21.3 SSW 16 21 1012.1 - 0.0 - - - - - - -

Other Formats:

Comma delimited format used in spreadsheet applications
http://www.bom.gov.au/fwo/IDW60701/IDW60701.94600.axf

JavaScript Object Notation format (JSON) in row-major order
http://www.bom.gov.au/fwo/IDW60701/IDW60701.94600.json